Time;durP1;ratioP1;P1;durP2;ratioP2;P2;SDS_P1;SDS_P2;PMS_P1;PMS_P2;Temp;Humidity;BMP_temperature;BMP_pressure;BME280_temperature;BME280_humidity;BME280_pressure;Samples;Min_cycle;Max_cycle;Signal;HPM_P1;HPM_P2
2023/08/20 00:00:27;;;;;;;7.15;4.68;;;22.10;99.90;;;;;;5042021;28;20025;-42
2023/08/20 00:03:12;;;;;;;6.40;4.43;;;22.00;99.90;;;;;;5044835;28;20082;-42
2023/08/20 00:05:39;;;;;;;7.88;5.07;;;22.00;99.90;;;;;;5041780;28;20021;-42
2023/08/20 00:08:05;;;;;;;6.95;4.78;;;21.90;99.90;;;;;;5040538;28;20025;-42
2023/08/20 00:10:32;;;;;;;5.60;4.55;;;21.90;99.90;;;;;;5043153;28;20084;-41
2023/08/20 00:12:58;;;;;;;7.88;4.95;;;22.00;99.90;;;;;;5038504;28;20500;-42
2023/08/20 00:15:26;;;;;;;6.22;4.78;;;22.00;99.90;;;;;;5036598;28;20040;-39
2023/08/20 00:17:53;;;;;;;7.15;4.30;;;21.90;99.90;;;;;;5035849;28;20060;-41
2023/08/20 00:20:19;;;;;;;9.13;4.43;;;21.80;99.90;;;;;;5019476;28;20259;-42
2023/08/20 00:22:45;;;;;;;5.95;4.32;;;21.90;99.90;;;;;;5038857;28;20157;-41
2023/08/20 00:25:12;;;;;;;9.13;4.88;;;21.90;99.90;;;;;;5037422;28;20029;-42
2023/08/20 00:27:39;;;;;;;6.05;4.68;;;21.80;99.90;;;;;;5037566;28;20104;-39
2023/08/20 00:30:06;;;;;;;5.55;4.88;;;21.80;99.90;;;;;;5037861;28;20032;-42
2023/08/20 00:32:31;;;;;;;7.18;4.43;;;21.60;99.90;;;;;;5034639;28;20044;-41
2023/08/20 00:34:57;;;;;;;9.63;4.47;;;21.50;99.90;;;;;;5036740;28;20029;-40
2023/08/20 00:37:23;;;;;;;6.07;4.13;;;21.50;99.90;;;;;;5037459;28;20037;-36
2023/08/20 00:39:48;;;;;;;5.82;4.55;;;21.40;99.90;;;;;;5040274;28;20043;-41
2023/08/20 00:42:14;;;;;;;6.80;4.00;;;21.20;99.90;;;;;;5019165;28;20046;-36
2023/08/20 00:44:46;;;;;;;6.30;4.32;;;21.20;99.90;;;;;;5038358;28;20029;-39
2023/08/20 00:47:13;;;;;;;5.15;4.38;;;21.20;99.90;;;;;;5035618;28;20033;-41
2023/08/20 00:49:40;;;;;;;6.97;4.10;;;21.20;99.90;;;;;;5016559;28;20380;-38
2023/08/20 00:52:08;;;;;;;4.82;3.95;;;21.20;99.90;;;;;;5034255;28;20124;-33
2023/08/20 00:54:35;;;;;;;9.25;4.20;;;20.80;99.90;;;;;;5034002;28;20029;-41
2023/08/20 00:57:02;;;;;;;5.85;4.18;;;20.90;99.90;;;;;;5035446;28;20881;-42
2023/08/20 00:59:30;;;;;;;5.67;4.37;;;20.90;99.90;;;;;;5036193;28;20033;-41
2023/08/20 01:01:55;;;;;;;;;;;20.90;99.90;;;;;;5033527;28;20055;-37
2023/08/20 01:04:21;;;;;;;6.15;4.38;;;20.80;99.90;;;;;;5038472;28;19947;-39
2023/08/20 01:07:01;;;;;;;5.82;4.65;;;20.90;99.90;;;;;;5044445;28;20466;-41
2023/08/20 01:10:15;;;;;;;7.15;4.35;;;20.90;99.90;;;;;;5025869;28;20581;-42
2023/08/20 01:12:41;;;;;;;6.90;4.60;;;20.90;99.90;;;;;;5010852;28;20368;-40
2023/08/20 01:15:13;;;;;;;9.70;4.70;;;21.00;99.90;;;;;;5034871;28;20059;-37
2023/08/20 01:17:40;;;;;;;5.15;4.55;;;20.90;99.90;;;;;;5035390;28;20485;-42
2023/08/20 01:20:07;;;;;;;7.22;4.13;;;20.90;99.90;;;;;;5036129;28;20032;-36
2023/08/20 01:22:47;;;;;;;6.45;4.43;;;20.90;99.90;;;;;;5035749;28;20049;-40
2023/08/20 01:25:37;;;;;;;4.97;4.47;;;20.80;99.90;;;;;;5034347;28;20395;-42
2023/08/20 01:28:27;;;;;;;5.78;4.30;;;20.70;99.90;;;;;;5025561;28;20082;-42
2023/08/20 01:30:58;;;;;;;6.03;4.63;;;20.70;99.90;;;;;;5033340;28;20033;-38
2023/08/20 01:33:25;;;;;;;6.07;4.30;;;20.50;99.90;;;;;;5034192;28;20063;-37
2023/08/20 01:35:51;;;;;;;6.22;4.15;;;20.50;99.90;;;;;;5035726;28;20032;-35
2023/08/20 01:38:26;;;;;;;5.78;4.40;;;20.50;99.90;;;;;;5034962;28;20039;-38
2023/08/20 01:40:52;;;;;;;6.03;3.88;;;20.50;99.90;;;;;;5037676;28;20114;-38
2023/08/20 01:43:17;;;;;;;4.97;4.10;;;20.50;99.90;;;;;;5033753;28;20084;-42
2023/08/20 01:45:43;;;;;;;5.35;4.45;;;20.50;99.90;;;;;;5037636;28;20709;-40
2023/08/20 01:48:09;;;;;;;5.75;4.22;;;20.50;99.90;;;;;;5037864;28;20044;-36
2023/08/20 01:50:35;;;;;;;6.07;4.30;;;20.50;99.90;;;;;;5038811;28;20084;-40
2023/08/20 01:53:02;;;;;;;7.72;4.43;;;20.40;99.90;;;;;;5018821;28;20083;-42
2023/08/20 01:55:28;;;;;;;4.90;4.40;;;20.30;99.90;;;;;;5036793;28;20029;-42
2023/08/20 01:57:54;;;;;;;6.65;4.50;;;20.30;99.90;;;;;;5038538;28;20282;-41
2023/08/20 02:00:19;;;;;;;6.72;4.93;;;20.20;99.90;;;;;;5037515;28;20376;-37
2023/08/20 02:02:45;;;;;;;7.40;4.75;;;20.00;99.90;;;;;;5033238;28;20030;-40
2023/08/20 02:05:10;;;;;;;8.85;4.63;;;19.80;99.90;;;;;;5032522;28;20116;-42
2023/08/20 02:07:36;;;;;;;8.00;4.63;;;19.80;99.90;;;;;;5034258;28;22179;-37
2023/08/20 02:10:02;;;;;;;5.25;4.30;;;19.90;99.90;;;;;;5036061;28;20446;-42
2023/08/20 02:12:28;;;;;;;5.05;4.55;;;19.90;99.90;;;;;;5036770;28;20030;-42
2023/08/20 02:14:54;;;;;;;6.85;4.47;;;19.90;99.90;;;;;;5039841;28;20934;-39
2023/08/20 02:17:19;;;;;;;4.82;4.22;;;19.90;99.90;;;;;;5039102;28;20045;-42
2023/08/20 02:19:45;;;;;;;5.45;4.53;;;19.90;99.90;;;;;;5038200;28;20021;-38
2023/08/20 02:22:10;;;;;;;7.13;4.80;;;19.90;99.90;;;;;;5037578;28;20048;-42
2023/08/20 02:24:36;;;;;;;6.45;4.68;;;19.90;99.90;;;;;;5036922;28;20209;-42
2023/08/20 02:27:02;;;;;;;8.77;4.47;;;19.90;99.90;;;;;;5038267;28;20060;-38
2023/08/20 02:29:28;;;;;;;5.38;4.00;;;19.80;99.90;;;;;;5041369;28;20094;-42
2023/08/20 02:31:54;;;;;;;4.90;4.50;;;19.80;99.90;;;;;;5036946;28;20490;-42
2023/08/20 02:34:19;;;;;;;6.25;4.53;;;19.70;99.90;;;;;;5037556;28;20082;-33
2023/08/20 02:36:45;;;;;;;6.88;4.97;;;19.60;99.90;;;;;;5040118;28;20049;-42
2023/08/20 02:39:10;;;;;;;5.93;3.92;;;19.70;99.90;;;;;;5039798;28;20127;-42
2023/08/20 02:41:36;;;;;;;4.03;3.53;;;19.50;99.90;;;;;;5039856;28;20688;-41
2023/08/20 02:44:03;;;;;;;5.22;3.88;;;19.50;99.90;;;;;;5039838;28;20421;-40
2023/08/20 02:46:28;;;;;;;4.53;3.75;;;19.50;99.90;;;;;;5039139;28;20044;-42
2023/08/20 02:48:54;;;;;;;5.70;3.67;;;19.60;99.90;;;;;;5040724;28;20660;-39
2023/08/20 02:51:20;;;;;;;4.32;3.92;;;19.60;99.90;;;;;;5036495;28;20838;-41
2023/08/20 02:53:45;;;;;;;4.28;3.83;;;19.60;99.90;;;;;;5041206;28;20032;-41
2023/08/20 02:56:11;;;;;;;3.83;3.40;;;19.60;99.90;;;;;;5036406;28;20068;-38
2023/08/20 02:58:36;;;;;;;4.90;3.70;;;19.70;99.90;;;;;;5040134;28;20041;-38
2023/08/20 03:01:02;;;;;;;4.15;3.65;;;19.60;99.90;;;;;;5037515;28;20394;-40
2023/08/20 03:03:28;;;;;;;4.18;3.78;;;19.50;99.90;;;;;;5045384;28;20704;-41
2023/08/20 03:05:53;;;;;;;4.25;3.63;;;19.50;99.90;;;;;;5046211;28;20459;-41
2023/08/20 03:08:19;;;;;;;4.97;4.18;;;19.50;99.90;;;;;;5038135;28;20115;-41
2023/08/20 03:10:45;;;;;;;6.03;4.15;;;19.50;99.90;;;;;;5041171;28;20029;-37
2023/08/20 03:13:11;;;;;;;6.20;3.78;;;19.50;99.90;;;;;;5041710;28;21759;-38
2023/08/20 03:15:37;;;;;;;8.05;4.70;;;19.50;99.90;;;;;;5041744;28;20536;-41
2023/08/20 03:18:03;;;;;;;5.88;4.70;;;19.50;99.90;;;;;;5036925;28;20045;-41
2023/08/20 03:20:30;;;;;;;5.45;4.35;;;19.50;99.90;;;;;;5038690;28;20032;-41
2023/08/20 03:22:56;;;;;;;8.75;4.32;;;19.50;99.90;;;;;;5038917;28;20049;-41
2023/08/20 03:25:22;;;;;;;6.65;4.70;;;19.40;99.90;;;;;;5020084;28;20037;-40
2023/08/20 03:27:47;;;;;;;6.65;4.40;;;19.30;99.90;;;;;;5036455;28;20029;-38
2023/08/20 03:30:13;;;;;;;7.22;4.53;;;19.30;99.90;;;;;;5038240;28;20032;-35
2023/08/20 03:32:39;;;;;;;6.35;4.90;;;19.20;99.90;;;;;;5035646;28;20037;-41
2023/08/20 03:35:05;;;;;;;6.78;4.38;;;19.00;99.90;;;;;;5038261;28;20035;-38
2023/08/20 03:37:30;;;;;;;4.93;3.92;;;18.90;99.90;;;;;;5035463;28;20056;-41
2023/08/20 03:39:56;;;;;;;6.95;3.92;;;18.90;99.90;;;;;;5036265;28;20031;-39
2023/08/20 03:42:21;;;;;;;5.32;3.83;;;19.00;99.90;;;;;;5042351;28;20037;-40
2023/08/20 03:44:47;;;;;;;4.40;4.00;;;19.10;99.90;;;;;;5036653;28;21769;-41
2023/08/20 03:47:13;;;;;;;4.50;3.72;;;19.10;99.90;;;;;;5020590;28;20033;-41
2023/08/20 03:49:38;;;;;;;2.97;2.78;;;19.10;99.90;;;;;;5037250;28;20068;-38
2023/08/20 03:52:06;;;;;;;3.47;3.28;;;19.10;99.90;;;;;;5044354;28;20656;-41
2023/08/20 03:54:32;;;;;;;3.20;2.70;;;19.10;99.90;;;;;;5035641;28;20155;-42
2023/08/20 03:56:58;;;;;;;4.95;2.88;;;19.10;99.90;;;;;;5038072;28;20762;-34
2023/08/20 03:59:23;;;;;;;4.80;3.28;;;19.10;99.90;;;;;;5041381;28;20114;-32
2023/08/20 04:01:49;;;;;;;6.00;4.15;;;19.00;99.90;;;;;;5040498;28;20037;-34
2023/08/20 04:04:15;;;;;;;4.93;3.85;;;19.00;99.90;;;;;;5037001;28;22082;-36
2023/08/20 04:06:40;;;;;;;5.75;4.63;;;19.00;99.90;;;;;;5035871;28;20037;-35
2023/08/20 04:09:06;;;;;;;5.10;4.32;;;19.00;99.90;;;;;;5038731;28;20514;-31
2023/08/20 04:11:32;;;;;;;5.25;4.70;;;19.10;99.90;;;;;;5035912;28;20037;-35
2023/08/20 04:13:58;;;;;;;7.18;4.05;;;19.10;99.90;;;;;;5035629;28;20182;-31
2023/08/20 04:16:24;;;;;;;4.88;4.38;;;19.00;99.90;;;;;;5039722;28;20036;-36
2023/08/20 04:18:49;;;;;;;7.03;4.80;;;19.00;99.90;;;;;;5037836;28;20471;-31
2023/08/20 04:21:15;;;;;;;5.18;4.53;;;18.80;99.90;;;;;;5039762;28;20029;-39
2023/08/20 04:23:41;;;;;;;6.07;4.07;;;18.80;99.90;;;;;;5039257;28;20028;-34
2023/08/20 04:26:07;;;;;;;3.58;2.80;;;18.70;99.90;;;;;;5022228;28;20067;-37
2023/08/20 04:28:33;;;;;;;3.42;2.95;;;18.50;99.90;;;;;;5037516;28;20479;-31
2023/08/20 04:31:00;;;;;;;3.33;2.75;;;18.40;99.90;;;;;;5038984;28;20033;-31
2023/08/20 04:33:25;;;;;;;3.00;2.78;;;18.30;99.90;;;;;;5038648;28;20388;-32
2023/08/20 04:35:51;;;;;;;3.60;3.30;;;18.30;99.90;;;;;;5031963;28;20045;-31
2023/08/20 04:38:17;;;;;;;4.75;4.10;;;18.40;99.90;;;;;;5040377;28;20026;-34
2023/08/20 04:40:45;;;;;;;5.50;4.57;;;18.50;99.90;;;;;;5035242;28;20484;-31
2023/08/20 04:43:11;;;;;;;6.65;5.03;;;18.50;99.90;;;;;;5040544;28;20029;-34
2023/08/20 04:45:36;;;;;;;5.32;4.65;;;18.50;99.90;;;;;;5039472;28;20076;-31
2023/08/20 04:48:02;;;;;;;4.68;4.07;;;18.50;99.90;;;;;;5019461;28;20120;-32
2023/08/20 04:50:27;;;;;;;6.35;4.40;;;18.60;99.90;;;;;;5042152;28;20037;-31
2023/08/20 04:52:54;;;;;;;4.60;4.20;;;18.60;99.90;;;;;;5038172;28;20491;-35
2023/08/20 04:55:20;;;;;;;4.95;4.18;;;18.60;99.90;;;;;;5036184;28;20120;-31
2023/08/20 04:57:45;;;;;;;7.50;4.93;;;18.60;99.90;;;;;;5040459;28;20561;-32
2023/08/20 05:00:11;;;;;;;6.30;4.55;;;18.40;99.90;;;;;;5037208;28;21020;-31
2023/08/20 05:02:37;;;;;;;7.18;4.88;;;18.50;99.90;;;;;;5037264;28;20482;-31
2023/08/20 05:05:03;;;;;;;5.85;4.75;;;18.50;99.90;;;;;;5043646;28;20115;-34
2023/08/20 05:07:28;;;;;;;7.93;5.43;;;18.50;99.90;;;;;;5045770;28;20037;-31
2023/08/20 05:09:54;;;;;;;7.40;4.93;;;18.60;99.90;;;;;;5039469;28;20441;-32
2023/08/20 05:12:20;;;;;;;8.13;5.40;;;18.60;99.90;;;;;;5020674;28;20422;-35
2023/08/20 05:14:45;;;;;;;6.68;5.70;;;18.70;99.90;;;;;;5038021;28;20106;-32
2023/08/20 05:17:11;;;;;;;6.28;5.35;;;18.80;99.90;;;;;;5034637;28;20053;-33
2023/08/20 05:19:36;;;;;;;6.40;5.10;;;18.90;99.90;;;;;;5038034;28;20124;-31
2023/08/20 05:22:02;;;;;;;7.18;5.43;;;19.00;99.90;;;;;;5039625;28;20021;-32
2023/08/20 05:24:27;;;;;;;7.00;5.45;;;19.10;99.90;;;;;;5021789;28;20036;-32
2023/08/20 05:27:05;;;;;;;7.97;5.35;;;19.20;99.90;;;;;;5026851;28;20082;-32
2023/08/20 05:29:31;;;;;;;7.28;5.35;;;19.30;99.90;;;;;;5030855;28;20036;-36
2023/08/20 05:31:57;;;;;;;6.20;5.05;;;19.30;99.90;;;;;;5011359;28;20033;-34
2023/08/20 05:34:23;;;;;;;7.60;5.65;;;19.40;99.90;;;;;;5026156;28;20029;-30
2023/08/20 05:36:48;;;;;;;8.57;5.55;;;19.50;99.90;;;;;;5031656;28;20033;-33
2023/08/20 05:39:14;;;;;;;8.60;6.30;;;19.50;99.90;;;;;;5029010;28;20025;-37
2023/08/20 05:41:39;;;;;;;8.32;5.63;;;19.60;99.90;;;;;;5039318;28;20029;-31
2023/08/20 05:44:05;;;;;;;6.97;6.03;;;19.70;99.90;;;;;;5030622;28;20700;-31
2023/08/20 05:46:30;;;;;;;8.10;5.85;;;19.70;99.90;;;;;;5036087;28;20135;-34
2023/08/20 05:48:56;;;;;;;7.43;6.05;;;19.80;99.90;;;;;;5019003;28;20035;-36
2023/08/20 05:51:22;;;;;;;8.25;6.03;;;19.90;99.90;;;;;;5009882;28;21920;-36
2023/08/20 05:53:47;;;;;;;11.30;6.60;;;19.90;99.90;;;;;;5030094;28;20041;-35
2023/08/20 05:56:13;;;;;;;9.95;6.72;;;20.00;99.90;;;;;;5033584;28;20024;-36
2023/08/20 05:58:38;;;;;;;10.57;6.95;;;20.10;99.90;;;;;;5027346;28;20037;-36
2023/08/20 06:01:04;;;;;;;8.52;6.95;;;20.20;99.90;;;;;;5030823;28;20043;-33
2023/08/20 06:03:29;;;;;;;10.02;7.10;;;20.30;99.90;;;;;;5035124;28;20076;-32
2023/08/20 06:05:57;;;;;;;9.25;6.35;;;20.30;99.90;;;;;;5034252;28;20029;-34
2023/08/20 06:08:23;;;;;;;8.73;6.63;;;20.50;99.90;;;;;;5034550;28;20674;-31
2023/08/20 06:10:48;;;;;;;9.07;6.93;;;20.50;99.90;;;;;;5038054;28;20068;-34
2023/08/20 06:13:14;;;;;;;9.68;7.25;;;20.70;99.90;;;;;;5021429;28;21133;-38
2023/08/20 06:15:40;;;;;;;8.10;7.18;;;20.80;99.90;;;;;;5035389;28;20123;-32
2023/08/20 06:18:05;;;;;;;10.73;7.38;;;21.00;99.90;;;;;;5044737;28;20056;-32
2023/08/20 06:20:31;;;;;;;11.57;7.82;;;21.10;99.90;;;;;;5020225;28;20532;-31
2023/08/20 06:22:56;;;;;;;10.10;7.03;;;21.20;99.90;;;;;;5033564;28;20028;-32
2023/08/20 06:25:22;;;;;;;8.25;6.40;;;21.20;99.90;;;;;;5041140;28;20390;-31
2023/08/20 06:27:48;;;;;;;9.13;7.80;;;21.40;99.90;;;;;;5042385;28;20037;-33
2023/08/20 06:30:13;;;;;;;8.25;7.07;;;21.40;99.90;;;;;;5046183;28;20025;-35
2023/08/20 06:32:39;;;;;;;10.73;6.97;;;21.60;99.90;;;;;;5047797;28;20075;-32
2023/08/20 06:35:05;;;;;;;11.90;7.55;;;21.70;99.90;;;;;;5048675;28;20060;-31
2023/08/20 06:37:31;;;;;;;9.52;7.15;;;21.90;99.90;;;;;;5047389;28;20029;-31
2023/08/20 06:39:56;;;;;;;9.27;7.35;;;21.90;99.90;;;;;;5042104;28;20029;-32
2023/08/20 06:42:22;;;;;;;11.90;7.68;;;22.10;99.90;;;;;;5043626;28;20946;-34
2023/08/20 06:44:47;;;;;;;9.75;7.65;;;22.10;99.90;;;;;;5039959;28;20375;-31
2023/08/20 06:47:14;;;;;;;8.88;6.72;;;22.30;99.90;;;;;;5036813;28;20037;-33
2023/08/20 06:49:40;;;;;;;15.88;7.78;;;22.50;99.90;;;;;;5040646;28;20037;-35
2023/08/20 06:52:06;;;;;;;10.30;7.72;;;22.50;99.90;;;;;;5042719;28;20068;-32
2023/08/20 06:54:31;;;;;;;9.38;6.97;;;22.70;99.90;;;;;;5034944;28;20156;-36
2023/08/20 06:56:57;;;;;;;11.13;7.70;;;22.80;99.90;;;;;;5036286;28;20065;-35
2023/08/20 06:59:23;;;;;;;8.38;7.05;;;22.90;99.90;;;;;;5034845;28;20033;-31
2023/08/20 07:01:49;;;;;;;8.77;6.68;;;23.00;99.90;;;;;;5039114;28;20033;-32
2023/08/20 07:04:14;;;;;;;7.75;6.95;;;23.20;99.90;;;;;;5038433;28;20037;-36
2023/08/20 07:06:40;;;;;;;9.50;7.00;;;23.30;99.90;;;;;;5039203;28;20510;-33
2023/08/20 07:09:05;;;;;;;9.25;7.15;;;23.50;99.90;;;;;;5040105;28;20044;-32
2023/08/20 07:11:31;;;;;;;9.85;6.82;;;23.60;99.90;;;;;;5040110;28;20041;-33
2023/08/20 07:13:57;;;;;;;9.07;7.65;;;23.70;99.90;;;;;;5037212;28;20813;-33
2023/08/20 07:16:22;;;;;;;10.05;7.25;;;23.90;99.90;;;;;;5041281;28;20025;-31
2023/08/20 07:18:48;;;;;;;8.05;6.68;;;24.00;99.90;;;;;;5047412;28;20532;-34
2023/08/20 07:21:13;;;;;;;11.13;7.47;;;24.00;99.90;;;;;;5042602;28;20091;-37
2023/08/20 07:23:39;;;;;;;10.05;7.18;;;24.10;99.90;;;;;;5041563;28;20070;-37
2023/08/20 07:26:08;;;;;;;9.10;6.88;;;24.20;99.90;;;;;;5023315;28;20036;-34
2023/08/20 07:31:18;;;;;;;11.85;7.03;;;24.40;99.90;;;;;;5039671;28;20075;-33
2023/08/20 07:33:49;;;;;;;12.48;6.90;;;24.50;99.90;;;;;;5039882;28;20467;-32
2023/08/20 07:36:16;;;;;;;9.32;6.78;;;24.80;99.90;;;;;;5042330;28;20032;-32
2023/08/20 07:38:43;;;;;;;8.60;7.45;;;24.80;99.90;;;;;;5039625;28;20021;-35
2023/08/20 07:41:09;;;;;;;7.07;6.28;;;24.70;99.90;;;;;;5024556;28;20478;-38
2023/08/20 07:43:36;;;;;;;10.23;7.40;;;24.90;99.90;;;;;;5042704;28;20014;-34
2023/08/20 07:46:01;;;;;;;8.35;6.07;;;25.10;99.90;;;;;;5039567;28;20096;-31
2023/08/20 07:48:27;;;;;;;9.07;7.10;;;25.40;99.90;;;;;;5038015;28;20031;-33
2023/08/20 07:50:52;;;;;;;9.38;7.70;;;25.50;99.90;;;;;;5008528;28;20021;-31
2023/08/20 07:53:18;;;;;;;8.98;6.95;;;25.70;99.90;;;;;;5024922;28;20040;-32
2023/08/20 07:55:44;;;;;;;10.00;6.78;;;25.50;99.90;;;;;;5039494;28;20958;-31
2023/08/20 07:58:09;;;;;;;8.18;6.70;;;25.50;99.90;;;;;;5038971;28;20302;-29
2023/08/20 08:00:35;;;;;;;8.30;7.25;;;25.50;99.90;;;;;;5039778;28;20752;-29
2023/08/20 08:03:01;;;;;;;7.07;6.10;;;25.70;99.90;;;;;;5041056;28;20499;-30
2023/08/20 08:05:26;;;;;;;8.63;7.10;;;26.00;99.90;;;;;;5043908;28;20314;-29
2023/08/20 08:07:52;;;;;;;8.75;6.40;;;26.30;99.90;;;;;;5038568;28;20041;-31
2023/08/20 08:10:17;;;;;;;9.98;7.07;;;26.60;99.90;;;;;;5038128;28;20037;-31
2023/08/20 08:12:43;;;;;;;7.55;6.75;;;26.90;99.90;;;;;;5038980;28;20776;-30
2023/08/20 08:15:09;;;;;;;7.13;6.18;;;27.00;99.90;;;;;;5040055;28;20033;-32
2023/08/20 08:17:34;;;;;;;9.73;6.15;;;26.90;99.90;;;;;;5027240;28;20253;-30
2023/08/20 08:20:00;;;;;;;7.53;5.93;;;26.90;99.90;;;;;;5041133;28;20025;-31
2023/08/20 08:22:26;;;;;;;8.20;5.97;;;27.30;99.90;;;;;;5035960;28;20040;-32
2023/08/20 08:24:52;;;;;;;7.35;6.20;;;27.60;99.90;;;;;;5026748;28;20398;-35
2023/08/20 08:27:17;;;;;;;6.47;5.80;;;27.60;99.90;;;;;;5038458;28;20033;-33
2023/08/20 08:29:44;;;;;;;9.00;6.03;;;27.80;99.90;;;;;;5037622;28;20071;-33
2023/08/20 08:32:10;;;;;;;7.30;5.75;;;28.00;99.90;;;;;;5033082;28;20095;-34
2023/08/20 08:34:35;;;;;;;8.40;6.68;;;28.20;99.90;;;;;;5037697;28;20098;-32
2023/08/20 08:37:01;;;;;;;7.13;6.20;;;28.10;99.90;;;;;;5041556;28;20035;-39
2023/08/20 08:39:26;;;;;;;6.63;5.70;;;27.80;99.90;;;;;;5046282;28;20031;-40
2023/08/20 08:41:59;;;;;;;8.00;5.70;;;27.80;99.90;;;;;;5043271;28;20036;-39
2023/08/20 08:44:25;;;;;;;6.93;6.22;;;27.90;99.90;;;;;;5032761;28;20025;-39
2023/08/20 08:46:51;;;;;;;7.93;5.72;;;27.80;99.90;;;;;;5035004;28;20037;-40
2023/08/20 08:49:18;;;;;;;9.43;6.28;;;27.90;99.90;;;;;;5039296;28;20032;-39
2023/08/20 08:51:47;;;;;;;6.85;5.95;;;27.70;99.90;;;;;;5039345;28;20068;-40
2023/08/20 08:54:15;;;;;;;8.25;5.90;;;27.60;99.90;;;;;;5037486;28;20139;-35
2023/08/20 08:56:40;;;;;;;9.10;6.57;;;27.50;99.90;;;;;;5020148;28;20044;-39
2023/08/20 08:59:06;;;;;;;6.60;5.95;;;27.60;99.90;;;;;;5033695;28;20037;-38
2023/08/20 09:01:32;;;;;;;7.28;5.78;;;27.90;99.90;;;;;;5034917;28;20151;-41
2023/08/20 09:03:57;;;;;;;6.05;5.43;;;28.20;99.90;;;;;;5033413;28;20079;-38
2023/08/20 09:06:23;;;;;;;8.35;6.15;;;28.50;99.90;;;;;;5036132;28;20037;-40
2023/08/20 09:08:48;;;;;;;7.13;5.40;;;28.70;99.90;;;;;;5039704;28;20494;-41
2023/08/20 09:11:15;;;;;;;6.15;5.60;;;28.90;99.90;;;;;;5032868;28;20037;-37
2023/08/20 09:13:43;;;;;;;8.90;4.93;;;28.90;99.90;;;;;;5032548;28;20037;-40
2023/08/20 09:16:10;;;;;;;9.85;6.00;;;29.10;99.90;;;;;;5035350;28;20409;-37
2023/08/20 09:18:41;;;;;;;6.78;5.32;;;29.40;99.90;;;;;;5036322;28;20060;-41
2023/08/20 09:21:08;;;;;;;6.43;5.82;;;29.40;99.90;;;;;;5035856;28;20494;-33
2023/08/20 09:23:34;;;;;;;8.63;5.88;;;29.10;99.90;;;;;;5034853;28;20611;-36
2023/08/20 09:26:01;;;;;;;7.95;5.70;;;28.80;99.90;;;;;;5030343;28;20044;-40
2023/08/20 09:28:27;;;;;;;4.38;3.90;;;28.80;99.90;;;;;;5034042;28;20033;-39
2023/08/20 09:30:57;;;;;;;4.97;3.80;;;28.90;99.90;;;;;;5034855;28;20033;-40
2023/08/20 09:33:22;;;;;;;4.50;3.95;;;29.00;99.90;;;;;;5036327;28;20057;-40
2023/08/20 09:38:24;;;;;;;7.70;4.38;;;28.90;99.90;;;;;;4129962;22;20050;-83
2023/08/20 09:40:56;;;;;;;7.75;5.90;;;29.10;99.90;;;;;;5067417;28;20126;-84
2023/08/20 09:43:28;;;;;;;11.43;10.13;;;29.10;99.90;;;;;;5069249;28;20088;-82
2023/08/20 09:45:56;;;;;;;7.35;5.45;;;29.50;99.90;;;;;;5064622;28;20100;-84
2023/08/20 09:48:23;;;;;;;6.85;5.50;;;29.70;99.90;;;;;;5075943;28;20032;-83
2023/08/20 09:50:51;;;;;;;;;;;29.70;99.90;;;;;;5081503;28;20051;-84
2023/08/20 09:53:29;;;;;;;5.18;4.45;;;29.50;99.90;;;;;;5074575;28;19916;-83
2023/08/20 09:56:03;;;;;;;4.90;4.28;;;29.70;99.90;;;;;;5071605;28;20048;-84
2023/08/20 09:58:30;;;;;;;8.50;6.70;;;29.70;99.90;;;;;;5074071;28;20136;-83
2023/08/20 10:00:56;;;;;;;;;;;29.70;99.90;;;;;;5071980;28;20130;-84
2023/08/20 10:03:22;;;;;;;15.75;7.47;;;29.90;99.90;;;;;;5076608;28;19999;-84
2023/08/20 10:05:54;;;;;;;12.38;6.95;;;30.00;99.90;;;;;;5074897;28;20044;-85
2023/08/20 10:08:20;;;;;;;7.20;5.45;;;30.10;99.90;;;;;;5072819;28;20090;-85
2023/08/20 10:10:46;;;;;;;5.80;5.05;;;30.20;99.90;;;;;;5078558;28;20020;-86
2023/08/20 10:13:13;;;;;;;7.35;4.22;;;30.30;99.90;;;;;;5075038;28;20029;-87
2023/08/20 10:15:40;;;;;;;5.97;3.88;;;30.40;99.90;;;;;;5075160;28;20036;-85
2023/08/20 10:18:08;;;;;;;5.82;4.15;;;30.70;99.90;;;;;;5071944;28;20044;-85
2023/08/20 10:20:34;;;;;;;5.63;4.28;;;30.90;99.90;;;;;;5075996;28;20371;-85
2023/08/20 10:23:03;;;;;;;24.70;10.73;;;30.60;99.90;;;;;;5075690;28;20011;-84
2023/08/20 10:25:30;;;;;;;5.47;4.03;;;30.40;99.90;;;;;;5061330;28;20037;-83
2023/08/20 10:28:20;;;;;;;5.45;4.10;;;30.60;99.90;;;;;;5064503;28;20050;-84
2023/08/20 10:31:06;;;;;;;7.68;4.60;;;30.50;99.90;;;;;;5075317;28;20044;-84
2023/08/20 10:33:33;;;;;;;6.37;4.43;;;30.30;99.90;;;;;;5073594;28;20040;-84
2023/08/20 10:36:13;;;;;;;5.95;4.18;;;30.30;99.90;;;;;;5075431;28;20032;-84
2023/08/20 10:38:39;;;;;;;6.07;4.00;;;30.30;99.90;;;;;;5077290;28;20061;-83
2023/08/20 10:41:09;;;;;;;8.65;4.25;;;30.30;99.90;;;;;;5075924;28;20109;-84
2023/08/20 10:43:34;;;;;;;7.20;4.07;;;30.40;99.90;;;;;;5078215;28;20051;-84
2023/08/20 10:46:17;;;;;;;5.95;4.35;;;30.40;99.90;;;;;;5075804;28;20437;-83
2023/08/20 10:48:51;;;;;;;6.15;4.45;;;30.50;99.90;;;;;;5059335;28;20508;-84
2023/08/20 10:51:27;;;;;;;8.02;4.60;;;30.50;99.90;;;;;;5077368;28;20119;-84
2023/08/20 10:54:05;;;;;;;7.40;4.10;;;30.50;99.90;;;;;;5075482;28;20437;-85
2023/08/20 10:56:45;;;;;;;8.15;4.55;;;30.50;99.90;;;;;;5076955;28;20025;-85
2023/08/20 10:59:18;;;;;;;10.18;4.97;;;30.60;99.90;;;;;;5074900;28;20136;-85
2023/08/20 11:01:48;;;;;;;4.47;3.88;;;30.80;99.90;;;;;;5078331;28;20028;-84
2023/08/20 11:04:21;;;;;;;5.28;4.22;;;31.10;99.90;;;;;;5075831;28;20225;-84
2023/08/20 11:06:52;;;;;;;4.78;4.28;;;31.30;99.90;;;;;;5081511;28;20033;-83
2023/08/20 11:09:18;;;;;;;5.75;3.55;;;31.30;99.90;;;;;;5078646;28;20081;-85
2023/08/20 11:11:44;;;;;;;5.53;4.00;;;31.20;99.90;;;;;;5080249;28;20040;-83
2023/08/20 11:14:14;;;;;;;4.43;3.47;;;31.30;99.90;;;;;;5079830;28;20277;-82
2023/08/20 11:16:41;;;;;;;4.47;3.67;;;31.50;99.90;;;;;;5072690;28;20032;-83
2023/08/20 11:19:10;;;;;;;5.63;3.95;;;32.00;99.90;;;;;;5075957;28;20526;-82
2023/08/20 11:21:40;;;;;;;6.15;3.80;;;32.10;99.90;;;;;;5069109;28;20420;-83
2023/08/20 11:24:06;;;;;;;5.22;3.53;;;32.10;99.90;;;;;;5073764;28;20029;-84
2023/08/20 11:26:38;;;;;;;6.90;3.80;;;32.50;99.90;;;;;;5062840;28;20552;-79
2023/08/20 11:29:08;;;;;;;6.53;4.10;;;32.40;99.90;;;;;;5074373;28;20047;-79
2023/08/20 11:31:37;;;;;;;4.90;3.92;;;32.20;99.90;;;;;;5074298;28;20044;-79
2023/08/20 11:34:03;;;;;;;4.10;3.50;;;32.40;99.90;;;;;;5074260;28;20036;-79
2023/08/20 11:36:29;;;;;;;3.58;3.05;;;32.30;99.90;;;;;;5075064;28;20039;-79
2023/08/20 11:38:55;;;;;;;4.45;3.50;;;32.00;99.90;;;;;;5075326;28;20496;-79
2023/08/20 11:41:21;;;;;;;6.05;3.65;;;31.80;99.90;;;;;;5077394;28;20097;-79
2023/08/20 11:43:48;;;;;;;6.07;3.40;;;31.70;99.90;;;;;;5072119;28;20041;-79
2023/08/20 11:46:15;;;;;;;7.13;3.70;;;31.60;99.90;;;;;;5075026;28;20330;-80
2023/08/20 11:49:07;;;;;;;4.07;3.28;;;31.50;99.90;;;;;;5078048;28;20067;-78
2023/08/20 11:51:37;;;;;;;8.15;3.30;;;31.50;99.90;;;;;;5071845;28;20383;-81
2023/08/20 11:54:05;;;;;;;5.93;3.17;;;31.60;99.90;;;;;;5077463;28;20138;-80
2023/08/20 11:56:33;;;;;;;5.10;3.03;;;31.70;99.90;;;;;;5076128;28;20130;-79
2023/08/20 11:59:00;;;;;;;4.60;3.05;;;32.20;99.90;;;;;;5071945;28;20028;-80
2023/08/20 12:01:29;;;;;;;4.75;3.33;;;32.30;99.90;;;;;;5071294;28;20047;-80
2023/08/20 12:04:06;;;;;;;3.75;3.35;;;32.10;99.90;;;;;;5077291;28;20043;-79
2023/08/20 12:06:34;;;;;;;;;;;32.10;99.90;;;;;;5074425;28;20578;-81
2023/08/20 12:09:00;;;;;;;5.45;3.00;;;32.10;99.90;;;;;;5073273;28;19938;-79
2023/08/20 12:11:27;;;;;;;4.57;3.17;;;32.10;99.90;;;;;;5073123;28;20143;-79
2023/08/20 12:13:53;;;;;;;;;;;32.00;99.90;;;;;;5074735;28;20380;-78
2023/08/20 12:16:21;;;;;;;5.43;3.53;;;32.10;99.90;;;;;;5074481;28;19923;-78
2023/08/20 12:18:47;;;;;;;3.75;3.20;;;32.10;99.90;;;;;;5077584;28;20040;-81
2023/08/20 12:21:13;;;;;;;4.60;3.10;;;32.10;99.90;;;;;;5077056;28;20088;-81
2023/08/20 12:23:38;;;;;;;3.47;2.80;;;32.40;99.90;;;;;;5076401;28;20039;-81
2023/08/20 12:26:04;;;;;;;4.22;3.00;;;32.80;99.90;;;;;;5074909;28;20036;-81
2023/08/20 12:28:30;;;;;;;3.53;2.78;;;32.90;99.90;;;;;;5077138;28;20346;-81
2023/08/20 12:30:56;;;;;;;5.13;2.88;;;32.70;99.90;;;;;;5078677;28;20100;-81
2023/08/20 12:33:21;;;;;;;6.43;3.25;;;32.70;99.90;;;;;;5073685;28;20025;-83
2023/08/20 12:35:53;;;;;;;6.05;3.15;;;32.60;99.90;;;;;;5072010;28;20476;-81
2023/08/20 12:38:33;;;;;;;5.47;3.22;;;32.50;99.90;;;;;;5076739;28;20048;-82
2023/08/20 12:41:04;;;;;;;4.50;2.90;;;32.60;99.90;;;;;;5075897;28;20044;-82
2023/08/20 12:43:44;;;;;;;4.72;3.03;;;32.70;99.90;;;;;;5074345;28;20031;-82
2023/08/20 12:46:19;;;;;;;4.30;2.80;;;32.60;99.90;;;;;;5070025;28;20028;-82
2023/08/20 12:48:54;;;;;;;3.92;3.10;;;32.40;99.90;;;;;;5056530;28;20031;-82
2023/08/20 12:51:31;;;;;;;4.32;2.85;;;32.90;99.90;;;;;;5072859;28;20112;-82
2023/08/20 12:54:00;;;;;;;4.85;2.92;;;33.30;99.90;;;;;;5075536;28;20037;-84